Terminal Aerodrome Forecast
Issued by NWS

Home | Current Version | Previous Version | Text Only | Print | Product List | Glossary On
Versions: 1 2 3 4 5 6 7 8 9 10 11 12 13 14 15 16 17 18 19 20 21 22 23
621
FTUS41 KCAR 252323
TAFBHB
TAF
KBHB 252323Z 2600/2624 14010KT P6SM OVC015 WS020/17040KT
     FM260200 15010KT 3SM -DZ OVC007 WS020/17040KT
     FM260400 16010KT 2SM -SHRA OVC004 WS020/18050KT
     FM260700 20009KT 2SM -SHRA OVC004
     FM260900 28012KT P6SM OVC012
     FM261300 29012G20KT P6SM BKN035=

USA.gov is the U.S. government's official web portal to all federal, state and local government web resources and services.